Time;durP1;ratioP1;P1;durP2;ratioP2;P2;SDS_P1;SDS_P2;PMS_P1;PMS_P2;Temp;Humidity;BMP_temperature;BMP_pressure;BME280_temperature;BME280_humidity;BME280_pressure;Samples;Min_cycle;Max_cycle;Signal;HPM_P1;HPM_P2
2023/06/18 00:00:13;;;;;;;23.85;9.90;;;;;;;21.51;49.28;100282.97;4128788;28;20133;-63
2023/06/18 00:02:16;;;;;;;17.35;9.48;;;;;;;21.42;49.31;100280.56;4133400;28;20133;-63
2023/06/18 00:04:18;;;;;;;15.50;9.30;;;;;;;21.39;49.46;100270.09;4124260;28;20105;-63
2023/06/18 00:06:21;;;;;;;13.48;8.45;;;;;;;21.37;49.72;100272.78;4129381;28;20582;-63
2023/06/18 00:08:24;;;;;;;13.07;8.75;;;;;;;21.37;49.57;100272.78;4128624;28;20499;-62
2023/06/18 00:10:27;;;;;;;14.17;8.03;;;;;;;21.35;50.01;100268.47;4111972;28;20521;-62
2023/06/18 00:12:30;;;;;;;21.25;8.95;;;;;;;21.35;49.65;100268.47;4112337;28;20326;-63
2023/06/18 00:14:33;;;;;;;22.63;9.75;;;;;;;21.36;49.46;100270.22;4129043;28;20089;-62
2023/06/18 00:16:37;;;;;;;12.48;9.10;;;;;;;21.33;49.47;100270.31;4128877;28;20105;-62
2023/06/18 00:18:40;;;;;;;15.88;8.35;;;;;;;21.26;49.71;100278.47;4128826;28;20073;-62
2023/06/18 00:20:42;;;;;;;14.60;8.38;;;;;;;21.26;49.54;100269.63;4128896;28;20045;-63
2023/06/18 00:22:48;;;;;;;12.88;9.45;;;;;;;21.24;49.48;100267.03;4129195;28;20579;-63
2023/06/18 00:24:50;;;;;;;16.25;9.68;;;;;;;21.20;49.97;100277.78;4125322;28;20038;-63
2023/06/18 00:26:53;;;;;;;13.80;8.70;;;;;;;21.06;50.29;100280.88;4128956;28;20042;-63
2023/06/18 00:28:56;;;;;;;13.77;9.18;;;;;;;21.06;50.01;100278.25;4131505;28;20057;-62
2023/06/18 00:30:59;;;;;;;19.45;9.10;;;;;;;20.97;49.90;100271.47;4128761;28;20045;-62
2023/06/18 00:33:05;;;;;;;21.48;8.50;;;;;;;20.98;49.98;100273.19;4131383;28;20436;-63
2023/06/18 00:35:09;;;;;;;14.60;8.15;;;;;;;20.95;50.02;100273.28;4110331;28;20078;-62
2023/06/18 00:37:12;;;;;;;14.75;8.60;;;;;;;20.91;50.67;100264.59;4131428;28;20061;-62
2023/06/18 00:39:15;;;;;;;12.20;8.57;;;;;;;20.89;51.25;100271.69;4129922;28;20496;-63
2023/06/18 00:41:18;;;;;;;18.17;9.00;;;;;;;20.86;51.63;100265.66;4128266;28;20034;-63
2023/06/18 00:43:21;;;;;;;15.15;8.73;;;;;;;20.84;52.25;100262.22;4127330;28;20053;-63
2023/06/18 00:45:28;;;;;;;12.70;9.23;;;;;;;20.77;52.98;100260.69;4128599;28;21217;-63
2023/06/18 00:47:32;;;;;;;13.65;9.40;;;;;;;20.73;53.37;100262.53;4112532;28;20097;-63
2023/06/18 00:49:37;;;;;;;13.55;8.75;;;;;;;20.68;52.88;100261.81;4130022;28;20057;-63
2023/06/18 00:51:44;;;;;;;14.38;8.90;;;;;;;20.68;52.89;100261.81;4130845;28;20046;-62
2023/06/18 00:53:47;;;;;;;13.40;8.68;;;;;;;20.71;52.57;100265.22;4128829;28;20039;-63
2023/06/18 00:55:51;;;;;;;15.82;8.90;;;;;;;20.73;52.59;100258.13;4129182;28;20030;-63
2023/06/18 00:57:59;;;;;;;11.60;8.60;;;;;;;20.72;52.86;100253.75;4130624;28;20081;-63
2023/06/18 01:00:04;;;;;;;13.32;8.90;;;;;;;20.57;52.78;100259.47;4127388;28;20038;-62
2023/06/18 01:02:08;;;;;;;13.95;8.68;;;;;;;20.50;52.90;100257.91;4128698;28;20057;-63
2023/06/18 01:04:12;;;;;;;12.60;9.30;;;;;;;20.48;53.17;100262.38;4127851;28;20419;-63
2023/06/18 01:06:19;;;;;;;15.45;9.48;;;;;;;20.45;53.06;100265.13;4129069;28;20101;-63
2023/06/18 01:08:23;;;;;;;17.17;9.25;;;;;;;20.41;52.40;100266.97;4127872;28;20040;-63
2023/06/18 01:10:28;;;;;;;15.35;8.82;;;;;;;20.37;52.09;100254.78;4126596;28;20692;-63
2023/06/18 01:12:31;;;;;;;13.52;9.15;;;;;;;20.39;51.37;100250.31;4124520;28;20133;-63
2023/06/18 01:14:42;;;;;;;14.13;8.60;;;;;;;20.38;51.16;100254.75;4128296;28;20034;-63
2023/06/18 01:16:46;;;;;;;12.18;8.85;;;;;;;20.37;51.04;100253.00;4128369;28;20038;-63
2023/06/18 01:18:50;;;;;;;12.47;9.03;;;;;;;20.40;50.52;100252.06;4112589;28;20201;-62
2023/06/18 01:20:55;;;;;;;;;;;;;;;20.29;50.14;100252.38;4130118;28;20038;-63
2023/06/18 01:23:02;;;;;;;18.30;8.20;;;;;;;20.35;49.78;100254.81;4128644;28;20403;-63
2023/06/18 01:25:08;;;;;;;11.43;7.45;;;;;;;20.39;51.20;100252.97;4127863;28;20157;-63
2023/06/18 01:27:12;;;;;;;12.63;8.20;;;;;;;20.36;51.65;100255.69;4129317;28;20045;-62
2023/06/18 01:29:16;;;;;;;11.00;8.15;;;;;;;20.32;51.10;100246.13;4129083;28;20057;-62
2023/06/18 01:31:21;;;;;;;11.55;8.15;;;;;;;20.31;50.22;100247.03;4113476;28;20043;-62
2023/06/18 01:33:25;;;;;;;11.52;8.60;;;;;;;20.26;50.23;100244.53;4134136;28;20179;-63
2023/06/18 01:35:28;;;;;;;15.35;8.32;;;;;;;20.27;50.03;100240.13;4128590;28;20122;-63
2023/06/18 01:37:44;;;;;;;14.60;8.15;;;;;;;20.29;49.87;100243.59;4128670;28;20039;-62
2023/06/18 01:39:55;;;;;;;12.02;7.60;;;;;;;20.23;49.21;100236.72;4116426;28;20444;-63
2023/06/18 01:42:11;;;;;;;13.45;7.45;;;;;;;20.18;49.13;100242.13;4128192;28;20042;-62
2023/06/18 01:44:20;;;;;;;8.80;7.05;;;;;;;20.16;48.73;100243.94;4095920;29;20043;-63
2023/06/18 01:46:25;;;;;;;11.88;8.52;;;;;;;20.14;48.12;100237.84;4127583;28;20042;-62
2023/06/18 01:48:32;;;;;;;10.07;7.93;;;;;;;20.10;48.78;100243.25;4142318;23;20432;-63
2023/06/18 01:50:56;;;;;;;13.65;8.45;;;;;;;20.13;49.10;100243.16;4128592;28;20270;-64
2023/06/18 01:53:21;;;;;;;11.65;7.63;;;;;;;20.16;49.27;100254.50;4114106;28;20427;-64
2023/06/18 01:55:45;;;;;;;9.60;7.97;;;;;;;20.15;49.65;100250.16;4121910;28;20110;-63
2023/06/18 01:58:08;;;;;;;14.68;8.70;;;;;;;20.09;49.73;100246.81;4115361;28;20122;-64
2023/06/18 02:00:30;;;;;;;10.05;8.00;;;;;;;20.00;49.94;100254.06;4130717;28;20061;-64
2023/06/18 02:02:52;;;;;;;15.10;8.88;;;;;;;19.91;50.49;100254.31;4130617;28;20049;-63
2023/06/18 02:05:14;;;;;;;10.63;7.68;;;;;;;19.80;50.82;100252.00;4116213;28;20061;-64
2023/06/18 02:07:36;;;;;;;13.55;8.88;;;;;;;19.81;51.07;100261.63;4115792;28;20603;-63
2023/06/18 02:09:57;;;;;;;13.48;9.80;;;;;;;19.80;51.67;100254.63;4115348;28;20101;-63
2023/06/18 02:12:20;;;;;;;13.93;9.10;;;;;;;19.78;52.25;100266.97;4116241;28;20098;-64
2023/06/18 02:14:41;;;;;;;14.32;9.10;;;;;;;19.77;52.58;100267.88;4113530;28;20049;-63
2023/06/18 02:17:03;;;;;;;15.10;9.18;;;;;;;19.74;53.52;100260.03;4115878;28;20113;-63
2023/06/18 02:19:24;;;;;;;11.00;8.98;;;;;;;19.71;53.92;100262.75;4115911;28;20485;-63
2023/06/18 02:21:48;;;;;;;13.80;8.98;;;;;;;19.75;54.73;100274.94;4113613;28;20146;-63
2023/06/18 02:24:10;;;;;;;12.15;8.88;;;;;;;19.79;55.26;100274.00;4115241;28;20148;-63
2023/06/18 02:26:16;;;;;;;17.27;8.60;;;;;;;19.81;55.44;100269.53;4112594;28;20039;-63
2023/06/18 02:28:21;;;;;;;13.43;8.50;;;;;;;19.83;55.79;100273.00;4113121;28;20308;-63
2023/06/18 02:30:25;;;;;;;12.25;9.50;;;;;;;19.79;56.00;100276.63;4126036;28;20038;-63
2023/06/18 02:32:28;;;;;;;10.43;7.93;;;;;;;19.75;56.47;100271.47;4096453;28;20113;-63
2023/06/18 02:34:34;;;;;;;18.75;9.55;;;;;;;19.72;56.74;100277.66;4114931;28;20057;-63
2023/06/18 02:36:38;;;;;;;11.65;8.52;;;;;;;19.68;56.92;100274.25;4130044;28;20133;-62
2023/06/18 02:38:43;;;;;;;16.67;9.40;;;;;;;19.72;56.45;100275.03;4130967;28;20046;-62
2023/06/18 02:40:46;;;;;;;16.08;9.30;;;;;;;19.77;56.31;100272.28;4113409;28;20077;-63
2023/06/18 02:42:50;;;;;;;13.65;9.25;;;;;;;19.79;55.98;100266.09;4112291;28;20134;-63
2023/06/18 02:44:54;;;;;;;11.18;8.43;;;;;;;19.79;55.79;100271.38;4129870;28;20038;-63
2023/06/18 02:46:57;;;;;;;16.30;8.98;;;;;;;19.74;55.34;100261.81;4113186;28;20514;-63
2023/06/18 02:49:00;;;;;;;11.43;8.50;;;;;;;19.70;55.40;100264.53;4112609;28;20102;-63
2023/06/18 02:51:03;;;;;;;12.60;8.38;;;;;;;19.70;54.96;100263.69;4133000;28;20544;-63
2023/06/18 02:53:05;;;;;;;13.10;7.82;;;;;;;19.67;54.20;100261.13;4112386;28;20595;-63
2023/06/18 02:55:11;;;;;;;13.30;8.05;;;;;;;19.65;54.72;100265.56;4112380;28;20322;-63
2023/06/18 02:57:14;;;;;;;13.27;8.15;;;;;;;19.63;54.64;100262.09;4116736;28;20034;-63
2023/06/18 02:59:17;;;;;;;12.25;8.60;;;;;;;19.65;54.87;100263.78;4105282;28;20050;-63
2023/06/18 03:01:23;;;;;;;14.52;7.72;;;;;;;19.69;54.36;100264.56;4110842;28;20463;-63
2023/06/18 03:03:26;;;;;;;10.55;7.80;;;;;;;19.67;53.53;100267.25;4114334;28;20042;-63
2023/06/18 03:05:33;;;;;;;11.82;7.82;;;;;;;19.69;53.32;100272.47;4112352;28;20043;-63
2023/06/18 03:07:37;;;;;;;11.60;7.93;;;;;;;19.67;53.27;100266.41;4112436;28;20038;-63
2023/06/18 03:09:40;;;;;;;10.63;7.32;;;;;;;19.62;53.00;100263.84;4112202;28;20097;-63
2023/06/18 03:11:43;;;;;;;10.88;7.13;;;;;;;19.53;52.81;100259.69;4111670;28;20069;-63
2023/06/18 03:13:47;;;;;;;15.95;7.53;;;;;;;19.41;52.56;100259.16;4112650;28;20137;-64
2023/06/18 03:15:50;;;;;;;11.90;7.38;;;;;;;19.40;52.18;100260.06;4129848;28;20058;-63
2023/06/18 03:17:56;;;;;;;11.20;7.57;;;;;;;19.32;52.05;100255.00;4112138;28;20035;-63
2023/06/18 03:19:59;;;;;;;12.88;7.93;;;;;;;19.32;51.83;100255.00;4112363;28;20043;-63
2023/06/18 03:22:03;;;;;;;11.38;7.32;;;;;;;19.31;51.33;100248.84;4096531;28;20114;-63
2023/06/18 03:24:07;;;;;;;12.48;7.78;;;;;;;19.27;51.87;100248.97;4111280;28;20049;-63
2023/06/18 03:26:11;;;;;;;10.20;7.25;;;;;;;19.25;51.75;100258.69;4111538;28;20043;-63
2023/06/18 03:28:14;;;;;;;11.95;8.32;;;;;;;19.23;52.41;100255.19;4111901;28;20113;-63
2023/06/18 03:30:18;;;;;;;11.13;7.03;;;;;;;19.22;53.27;100261.41;4115233;28;20554;-63
2023/06/18 03:32:21;;;;;;;14.18;7.50;;;;;;;19.21;54.26;100267.56;4129461;28;20097;-63
2023/06/18 03:34:26;;;;;;;9.90;7.20;;;;;;;19.18;54.91;100269.34;4112233;28;20528;-63
2023/06/18 03:36:29;;;;;;;11.95;6.95;;;;;;;19.08;55.90;100275.75;4111933;28;20146;-64
2023/06/18 03:38:32;;;;;;;10.55;7.60;;;;;;;19.08;56.52;100278.38;4112133;28;20041;-64
2023/06/18 03:40:38;;;;;;;12.35;7.95;;;;;;;19.07;56.63;100276.69;4125149;28;20154;-64
2023/06/18 03:42:42;;;;;;;9.52;7.63;;;;;;;19.03;57.37;100277.66;4111897;28;20034;-64
2023/06/18 03:44:49;;;;;;;10.68;7.32;;;;;;;18.92;57.98;100280.50;4111587;28;20039;-64
2023/06/18 03:46:53;;;;;;;12.43;8.48;;;;;;;18.92;58.04;100283.16;4111562;28;20035;-64
2023/06/18 03:48:56;;;;;;;10.80;8.30;;;;;;;18.95;58.04;100280.47;4127846;28;20094;-64
2023/06/18 03:51:00;;;;;;;12.68;8.45;;;;;;;19.01;57.84;100277.69;4095943;28;20150;-64
2023/06/18 03:53:05;;;;;;;15.45;8.32;;;;;;;19.01;57.89;100282.94;4127781;28;20401;-64
2023/06/18 03:55:12;;;;;;;13.30;7.97;;;;;;;19.05;57.57;100286.38;4111684;28;20043;-64
2023/06/18 03:57:15;;;;;;;9.32;7.45;;;;;;;19.07;57.79;100284.59;4112046;28;20109;-64
2023/06/18 03:59:19;;;;;;;13.32;8.85;;;;;;;19.10;57.11;100295.03;4124346;28;20723;-64
2023/06/18 04:01:22;;;;;;;12.98;8.70;;;;;;;19.09;57.31;100290.66;4109262;28;20035;-64
2023/06/18 04:03:25;;;;;;;14.88;8.05;;;;;;;19.02;57.29;100291.72;4110811;28;20051;-64
2023/06/18 04:05:29;;;;;;;12.07;7.13;;;;;;;19.00;57.25;100299.66;4127569;28;20505;-64
2023/06/18 04:07:33;;;;;;;10.48;7.60;;;;;;;19.00;56.89;100298.78;4111097;28;20070;-64
2023/06/18 04:09:36;;;;;;;13.25;7.63;;;;;;;18.96;57.05;100299.75;4108824;28;20047;-64
2023/06/18 04:11:40;;;;;;;10.65;8.10;;;;;;;19.02;56.82;100291.72;4111415;28;20049;-64
2023/06/18 04:13:43;;;;;;;12.27;7.50;;;;;;;19.04;57.13;100283.78;4111501;28;20035;-64
2023/06/18 04:15:49;;;;;;;11.65;7.50;;;;;;;19.07;57.02;100287.22;4128480;28;20566;-64
2023/06/18 04:17:52;;;;;;;11.15;7.57;;;;;;;19.09;56.94;100288.03;4111491;28;20054;-63
2023/06/18 04:19:55;;;;;;;13.32;8.50;;;;;;;19.11;57.14;100288.00;4099122;28;20043;-63
2023/06/18 04:21:58;;;;;;;12.40;8.48;;;;;;;19.13;56.84;100288.84;4114737;28;20040;-64
2023/06/18 04:24:03;;;;;;;16.05;8.02;;;;;;;19.15;56.70;100297.56;4115521;28;20195;-64
2023/06/18 04:26:06;;;;;;;11.48;8.30;;;;;;;19.12;56.54;100295.00;4099639;28;20078;-64
2023/06/18 04:28:08;;;;;;;13.63;7.95;;;;;;;19.14;56.43;100298.47;4099989;28;20055;-63
2023/06/18 04:30:12;;;;;;;10.30;8.75;;;;;;;19.16;56.28;100291.41;4113811;28;20042;-63
2023/06/18 04:32:15;;;;;;;16.45;9.07;;;;;;;19.17;55.89;100295.75;4115071;28;20042;-63
2023/06/18 04:34:18;;;;;;;14.30;8.63;;;;;;;19.18;56.44;100300.97;4129789;28;20038;-63
2023/06/18 04:36:23;;;;;;;10.63;8.05;;;;;;;19.24;56.01;100299.13;4124762;28;20038;-63
2023/06/18 04:38:27;;;;;;;10.82;7.93;;;;;;;19.28;56.27;100295.50;4125820;28;20045;-63
2023/06/18 04:40:31;;;;;;;13.18;8.48;;;;;;;19.32;56.23;100297.16;4115269;28;20138;-63
2023/06/18 04:42:36;;;;;;;12.00;8.57;;;;;;;19.38;56.29;100302.28;4114299;28;20046;-63
2023/06/18 04:44:41;;;;;;;15.13;7.93;;;;;;;19.42;55.49;100298.66;4129563;28;20500;-64
2023/06/18 04:46:45;;;;;;;17.70;8.65;;;;;;;19.46;55.81;100305.56;4114855;28;20039;-64
2023/06/18 04:48:48;;;;;;;8.02;6.55;;;;;;;19.53;55.94;100296.59;4094355;28;20044;-60
2023/06/18 04:50:53;;;;;;;11.18;7.50;;;;;;;19.95;55.14;100292.91;4130721;28;20043;-60
2023/06/18 04:52:56;;;;;;;12.45;6.95;;;;;;;20.30;54.37;100292.84;4113401;28;20046;-61
2023/06/18 04:55:00;;;;;;;11.88;7.88;;;;;;;20.53;53.31;100297.44;4113631;28;20047;-60
2023/06/18 04:57:05;;;;;;;11.27;7.13;;;;;;;20.70;52.15;100291.69;4129136;28;20045;-61
2023/06/18 04:59:08;;;;;;;10.30;7.45;;;;;;;20.86;51.58;100285.00;4097100;29;20536;-60
2023/06/18 05:01:13;;;;;;;;;;;;;;;20.97;51.23;100289.09;4113794;28;20106;-60
2023/06/18 05:03:17;;;;;;;12.20;7.30;;;;;;;21.06;50.33;100288.81;4111591;28;19922;-60
2023/06/18 05:05:20;;;;;;;12.10;7.35;;;;;;;21.15;49.91;100287.66;4110227;28;20055;-60
2023/06/18 05:07:25;;;;;;;16.48;7.53;;;;;;;21.23;49.75;100286.50;4129776;28;20050;-60
2023/06/18 05:09:30;;;;;;;12.00;6.82;;;;;;;21.27;49.56;100288.13;4129490;28;20046;-60
2023/06/18 05:11:32;;;;;;;;;;;;;;;21.27;49.45;100282.84;4094402;28;20054;-61
2023/06/18 05:13:37;;;;;;;12.77;6.28;;;;;;;21.32;49.46;100287.97;4109967;28;19969;-61
2023/06/18 05:15:40;;;;;;;10.32;6.78;;;;;;;21.38;48.98;100289.56;4126797;28;20074;-60
2023/06/18 05:17:43;;;;;;;12.68;7.20;;;;;;;21.43;48.63;100284.94;4109118;28;20066;-61
2023/06/18 05:19:49;;;;;;;10.57;6.00;;;;;;;21.45;48.20;100291.94;4125944;28;20510;-61
2023/06/18 05:21:52;;;;;;;10.73;6.28;;;;;;;21.49;47.75;100292.66;4130905;28;20093;-61
2023/06/18 05:23:58;;;;;;;7.75;6.30;;;;;;;21.55;47.40;100287.22;4116230;28;20042;-61
2023/06/18 05:26:01;;;;;;;8.48;6.35;;;;;;;21.60;47.20;100284.44;4110447;28;20215;-61
2023/06/18 05:28:04;;;;;;;9.60;6.55;;;;;;;21.64;46.91;100282.53;4129357;28;20097;-61
2023/06/18 05:30:12;;;;;;;9.00;6.93;;;;;;;21.69;46.75;100289.38;4111446;28;20619;-61
2023/06/18 05:32:15;;;;;;;8.95;6.45;;;;;;;21.71;46.56;100286.69;4114076;28;20042;-59
2023/06/18 05:34:18;;;;;;;8.82;6.25;;;;;;;21.73;46.36;100290.16;4111481;28;20039;-59
2023/06/18 05:36:22;;;;;;;8.67;6.57;;;;;;;21.76;46.01;100285.59;4114199;28;20043;-59
2023/06/18 05:38:26;;;;;;;11.65;6.35;;;;;;;21.78;46.06;100288.19;4130759;28;20030;-59
2023/06/18 05:40:28;;;;;;;10.30;7.03;;;;;;;21.78;45.72;100288.19;4129402;28;20488;-59
2023/06/18 05:42:35;;;;;;;8.43;6.07;;;;;;;21.77;45.54;100297.03;4114333;28;20069;-59
2023/06/18 05:44:39;;;;;;;9.55;6.20;;;;;;;21.81;45.57;100300.47;4114378;28;20054;-59
2023/06/18 05:46:43;;;;;;;9.27;6.53;;;;;;;21.84;45.55;100303.84;4109564;28;20039;-60
2023/06/18 05:48:46;;;;;;;9.60;6.30;;;;;;;21.89;45.40;100303.69;4113472;28;20090;-60
2023/06/18 05:50:52;;;;;;;12.05;6.78;;;;;;;21.96;45.13;100305.19;4109983;28;20082;-60
2023/06/18 05:52:55;;;;;;;10.20;6.55;;;;;;;22.05;44.85;100296.06;4129507;28;20066;-59
2023/06/18 05:54:58;;;;;;;12.90;6.38;;;;;;;22.03;44.88;100297.91;4129317;28;20121;-59
2023/06/18 05:57:01;;;;;;;8.95;6.18;;;;;;;22.06;45.08;100298.66;4126072;28;20046;-59
2023/06/18 05:59:04;;;;;;;8.63;6.45;;;;;;;22.09;45.24;100300.34;4110632;28;20035;-59
2023/06/18 06:01:12;;;;;;;9.80;5.97;;;;;;;22.13;45.28;100299.31;4093457;28;20047;-60
2023/06/18 06:03:16;;;;;;;11.23;6.53;;;;;;;22.19;45.38;100309.69;4128056;28;20038;-61
2023/06/18 06:05:46;;;;;;;9.85;6.80;;;;;;;22.23;45.46;100306.00;4111830;28;20512;-59
2023/06/18 06:07:51;;;;;;;9.80;5.68;;;;;;;22.29;45.49;100308.41;4118206;28;20043;-60
2023/06/18 06:09:53;;;;;;;9.93;7.20;;;;;;;22.38;45.04;100309.03;4112861;28;20485;-59
2023/06/18 06:11:56;;;;;;;11.07;7.32;;;;;;;22.46;44.92;100310.47;4129544;28;20045;-59
2023/06/18 06:13:59;;;;;;;9.18;6.55;;;;;;;22.55;44.76;100303.13;4113124;28;20110;-59
2023/06/18 06:16:02;;;;;;;9.57;6.60;;;;;;;22.54;44.67;100302.22;4096675;29;20067;-59
2023/06/18 06:18:05;;;;;;;10.88;6.57;;;;;;;22.66;44.58;100309.72;4111353;28;20101;-59
2023/06/18 06:20:10;;;;;;;8.70;6.30;;;;;;;22.77;44.28;100297.84;4111504;28;20130;-60
2023/06/18 06:22:13;;;;;;;9.80;7.88;;;;;;;22.89;44.05;100304.44;4096074;29;20039;-59
2023/06/18 06:24:16;;;;;;;11.90;8.18;;;;;;;22.92;43.96;100309.63;4128872;28;20121;-60
2023/06/18 06:26:19;;;;;;;8.90;6.63;;;;;;;22.93;43.96;100312.22;4126515;28;20600;-60
2023/06/18 06:28:22;;;;;;;9.13;6.57;;;;;;;23.02;44.11;100309.19;4125671;28;20046;-59
2023/06/18 06:30:25;;;;;;;12.48;7.30;;;;;;;23.09;44.36;100304.50;4109395;28;20059;-60
2023/06/18 06:32:35;;;;;;;11.95;7.07;;;;;;;23.19;44.50;100299.75;4113756;28;20051;-60
2023/06/18 06:34:38;;;;;;;14.35;8.88;;;;;;;23.27;43.93;100304.72;4117207;28;20057;-60
2023/06/18 06:36:43;;;;;;;9.93;7.45;;;;;;;23.33;43.39;100300.03;4131043;28;20046;-60
2023/06/18 06:38:48;;;;;;;9.38;7.25;;;;;;;23.38;43.16;100298.97;4114120;28;20039;-60
2023/06/18 06:40:50;;;;;;;9.98;7.75;;;;;;;23.45;43.38;100295.13;4124358;28;20401;-59
2023/06/18 06:42:53;;;;;;;9.10;6.72;;;;;;;23.53;42.88;100299.19;4130917;28;20043;-59
2023/06/18 06:45:08;;;;;;;11.93;8.13;;;;;;;23.59;42.92;100300.72;4129575;28;20038;-59
2023/06/18 06:47:30;;;;;;;9.45;7.57;;;;;;;23.67;43.05;100295.97;4108286;28;20535;-59
2023/06/18 06:49:53;;;;;;;11.18;8.63;;;;;;;23.80;42.30;100296.28;4131413;28;20149;-59
2023/06/18 06:52:04;;;;;;;9.82;7.38;;;;;;;23.77;42.87;100298.19;4112220;28;20604;-60
2023/06/18 06:54:09;;;;;;;;;;;;;;;23.79;42.82;100306.97;4122764;28;20511;-60
2023/06/18 06:56:38;;;;;;;9.40;6.72;;;;;;;23.87;42.69;100299.56;4126579;28;19928;-60
2023/06/18 06:58:43;;;;;;;10.38;7.43;;;;;;;23.92;42.09;100297.56;4114100;28;20121;-60
2023/06/18 07:00:50;;;;;;;11.55;7.90;;;;;;;24.01;41.82;100312.25;4110930;28;20098;-60
2023/06/18 07:02:53;;;;;;;8.68;7.10;;;;;;;24.04;42.06;100304.97;4126141;28;20495;-59
2023/06/18 07:04:56;;;;;;;9.48;7.15;;;;;;;24.07;41.59;100311.09;4128002;28;20049;-60
2023/06/18 07:06:59;;;;;;;10.40;7.72;;;;;;;24.11;41.44;100307.34;4129332;28;20034;-60
2023/06/18 07:09:03;;;;;;;10.75;7.22;;;;;;;24.14;41.28;100315.22;4128953;28;20050;-60
2023/06/18 07:11:07;;;;;;;10.65;6.60;;;;;;;24.19;41.26;100321.16;4128857;28;20485;-60
2023/06/18 07:13:10;;;;;;;9.43;7.07;;;;;;;24.24;41.08;100313.88;4122241;28;21568;-60
2023/06/18 07:15:13;;;;;;;9.73;6.25;;;;;;;24.31;40.79;100319.75;4126463;28;20049;-60
2023/06/18 07:17:15;;;;;;;9.77;6.55;;;;;;;24.42;40.77;100324.59;4128226;28;20070;-60
2023/06/18 07:19:18;;;;;;;11.27;7.45;;;;;;;24.50;40.78;100317.13;4129502;28;20097;-60
2023/06/18 07:21:21;;;;;;;10.57;7.68;;;;;;;24.55;39.86;100317.78;4128876;28;20555;-60
2023/06/18 07:23:24;;;;;;;10.70;8.40;;;;;;;24.56;39.37;100324.81;4127786;28;20092;-60
2023/06/18 07:25:28;;;;;;;9.70;7.43;;;;;;;24.51;39.68;100324.16;4125760;28;20038;-60
2023/06/18 07:27:31;;;;;;;9.77;7.30;;;;;;;24.57;39.30;100327.41;4128648;28;20046;-60
2023/06/18 07:29:34;;;;;;;9.73;6.78;;;;;;;24.57;39.30;100326.53;4127810;28;20045;-60
2023/06/18 07:31:36;;;;;;;12.10;7.43;;;;;;;24.69;39.31;100320.69;4127661;28;20635;-60
2023/06/18 07:33:39;;;;;;;13.00;7.80;;;;;;;24.74;39.16;100318.66;4127787;28;20519;-60
2023/06/18 07:35:42;;;;;;;10.25;7.43;;;;;;;24.72;39.07;100320.53;4128941;28;20045;-60
2023/06/18 07:37:45;;;;;;;9.60;7.57;;;;;;;24.78;39.00;100324.72;4127641;28;20035;-60
2023/06/18 07:39:48;;;;;;;16.63;8.18;;;;;;;24.89;38.72;100313.56;4112807;28;20039;-60
2023/06/18 07:41:52;;;;;;;9.50;8.00;;;;;;;24.91;38.75;100309.00;4125416;28;20125;-60
2023/06/18 07:43:54;;;;;;;8.65;6.75;;;;;;;24.96;38.88;100309.66;4111898;28;20035;-60
2023/06/18 07:45:58;;;;;;;11.68;8.80;;;;;;;25.05;38.67;100314.53;4128303;28;20039;-60
2023/06/18 07:48:01;;;;;;;8.17;5.47;;;;;;;25.14;38.76;100307.06;4110654;28;20591;-59
2023/06/18 07:50:06;;;;;;;10.38;7.15;;;;;;;25.03;37.01;100305.78;4127080;28;20388;-60
2023/06/18 07:52:10;;;;;;;12.93;7.55;;;;;;;24.98;37.93;100304.28;4128591;28;20444;-60
2023/06/18 07:54:13;;;;;;;9.15;6.50;;;;;;;25.05;37.55;100303.91;4109282;28;20035;-60
2023/06/18 07:56:16;;;;;;;10.93;7.35;;;;;;;25.11;37.04;100304.53;4130349;28;20508;-60
2023/06/18 07:58:21;;;;;;;9.75;7.20;;;;;;;25.19;37.29;100303.22;4129210;28;20081;-60
2023/06/18 08:00:24;;;;;;;;;;;;;;;25.26;37.35;100304.66;4128625;28;20045;-60
2023/06/18 08:02:37;;;;;;;12.05;7.05;;;;;;;25.37;37.58;100293.50;4129171;28;20415;-59
2023/06/18 08:04:40;;;;;;;11.00;6.75;;;;;;;25.52;37.81;100304.31;4113950;28;20389;-59
2023/06/18 08:06:43;;;;;;;10.07;7.63;;;;;;;25.55;37.10;100296.16;4131721;28;20069;-60
2023/06/18 08:08:48;;;;;;;9.73;7.20;;;;;;;25.55;37.13;100291.72;4131038;28;20042;-60
2023/06/18 08:10:51;;;;;;;10.75;7.88;;;;;;;25.48;37.11;100289.44;4112955;28;20134;-60
2023/06/18 08:12:54;;;;;;;11.65;7.57;;;;;;;25.37;37.43;100290.84;4131005;28;20492;-60
2023/06/18 08:14:58;;;;;;;15.30;8.13;;;;;;;25.49;37.68;100293.81;4113707;28;20146;-59
2023/06/18 08:17:01;;;;;;;10.73;7.18;;;;;;;25.61;37.73;100293.19;4096316;28;20039;-60
2023/06/18 08:19:04;;;;;;;10.85;7.13;;;;;;;25.70;38.23;100291.84;4132336;28;20391;-59
2023/06/18 08:21:06;;;;;;;8.75;7.13;;;;;;;25.81;37.65;100301.97;4130370;28;20500;-60
2023/06/18 08:23:09;;;;;;;12.07;7.32;;;;;;;25.90;37.18;100298.81;4127991;28;20049;-60
2023/06/18 08:25:12;;;;;;;12.05;7.47;;;;;;;25.92;37.29;100294.28;4127764;28;20038;-59
2023/06/18 08:27:16;;;;;;;11.38;6.72;;;;;;;25.93;37.71;100298.66;4129592;28;20061;-60
2023/06/18 08:29:18;;;;;;;10.60;7.20;;;;;;;26.00;36.87;100289.41;4128505;28;20058;-59
2023/06/18 08:31:23;;;;;;;11.60;6.68;;;;;;;26.06;36.98;100282.91;4112684;28;20113;-60
2023/06/18 08:33:25;;;;;;;11.35;6.63;;;;;;;26.11;36.79;100288.88;4130956;28;20048;-60
2023/06/18 08:35:28;;;;;;;10.13;7.40;;;;;;;26.11;36.91;100284.38;4113904;28;20134;-60
2023/06/18 08:37:31;;;;;;;8.00;6.70;;;;;;;26.08;36.94;100284.56;4131273;28;20141;-60
2023/06/18 08:39:34;;;;;;;9.88;6.78;;;;;;;26.19;37.32;100283.13;4131243;28;20460;-60
2023/06/18 08:41:39;;;;;;;10.07;6.63;;;;;;;26.30;36.88;100284.25;4113758;28;20054;-60
2023/06/18 08:43:42;;;;;;;8.60;7.22;;;;;;;26.24;37.27;100283.72;4128857;28;20103;-60
2023/06/18 08:45:46;;;;;;;15.55;8.25;;;;;;;26.24;37.29;100281.06;4112795;28;20049;-60
2023/06/18 08:47:56;;;;;;;12.45;8.05;;;;;;;26.21;37.01;100278.56;4131075;28;20491;-60
2023/06/18 08:50:00;;;;;;;9.15;6.65;;;;;;;26.16;37.02;100275.28;4101176;28;20065;-60
2023/06/18 08:52:06;;;;;;;12.98;7.32;;;;;;;26.10;37.47;100273.81;4134951;28;20046;-60
2023/06/18 08:54:13;;;;;;;12.82;8.02;;;;;;;26.08;37.68;100265.91;4129031;28;20069;-60
2023/06/18 08:56:21;;;;;;;11.23;7.55;;;;;;;26.11;37.94;100273.72;4128774;28;20050;-60
2023/06/18 08:58:27;;;;;;;10.65;7.50;;;;;;;26.22;37.72;100277.63;4131058;28;20038;-59
2023/06/18 09:00:30;;;;;;;11.82;7.65;;;;;;;26.18;37.92;100284.06;4111041;28;20034;-59
2023/06/18 09:02:33;;;;;;;12.13;8.38;;;;;;;26.11;37.69;100279.06;4129906;28;20050;-60
2023/06/18 09:04:39;;;;;;;12.02;8.07;;;;;;;26.03;37.77;100278.59;4115083;28;20059;-60
2023/06/18 09:06:43;;;;;;;12.38;8.48;;;;;;;26.00;37.97;100272.59;4110151;28;20568;-59
2023/06/18 09:08:48;;;;;;;8.65;7.40;;;;;;;26.06;38.23;100274.91;4098333;28;20043;-60
2023/06/18 09:10:55;;;;;;;9.98;7.28;;;;;;;26.25;38.21;100272.97;4130817;28;20555;-60
2023/06/18 09:12:58;;;;;;;11.23;7.57;;;;;;;26.54;37.75;100275.84;4128934;28;20042;-60
2023/06/18 09:15:01;;;;;;;9.15;7.28;;;;;;;26.69;38.06;100268.81;4129609;28;20050;-59
2023/06/18 09:17:04;;;;;;;8.13;7.13;;;;;;;26.80;37.59;100269.09;4110657;28;20038;-59
2023/06/18 09:19:07;;;;;;;13.20;8.27;;;;;;;26.96;37.29;100266.41;4112966;28;20062;-59
2023/06/18 09:21:38;;;;;;;12.00;8.05;;;;;;;27.12;37.04;100271.72;4109264;28;20039;-60
2023/06/18 09:23:41;;;;;;;9.88;7.15;;;;;;;27.23;37.16;100259.56;4125406;28;20046;-60
2023/06/18 09:25:50;;;;;;;13.35;7.68;;;;;;;27.39;35.88;100262.22;4132331;28;20121;-59
2023/06/18 09:27:56;;;;;;;10.13;8.40;;;;;;;27.43;35.51;100261.09;4120951;28;20072;-59
2023/06/18 09:29:59;;;;;;;11.77;8.63;;;;;;;27.53;35.23;100254.25;4130409;28;20469;-59
2023/06/18 09:32:06;;;;;;;14.30;9.48;;;;;;;27.64;36.10;100256.25;4130986;28;20468;-59
2023/06/18 09:34:18;;;;;;;12.50;8.65;;;;;;;27.70;33.82;100247.88;4131041;28;20042;-59
2023/06/18 09:36:25;;;;;;;11.48;8.13;;;;;;;27.77;34.39;100245.69;4130817;28;20038;-59
2023/06/18 09:38:37;;;;;;;13.70;8.48;;;;;;;27.81;34.43;100245.41;4130964;28;20130;-59